sensor_id;sensor_type;location;lat;lon;timestamp;temperature;humidity
48007;DHT22;33771;48.180;11.400;2022-12-07T00:01:40;2.40;99.90
48007;DHT22;33771;48.180;11.400;2022-12-07T00:04:07;2.40;99.90
48007;DHT22;33771;48.180;11.400;2022-12-07T00:06:37;2.40;99.90
48007;DHT22;33771;48.180;11.400;2022-12-07T00:09:05;2.40;99.90
48007;DHT22;33771;48.180;11.400;2022-12-07T00:11:31;2.40;99.90
48007;DHT22;33771;48.180;11.400;2022-12-07T00:13:59;2.40;99.90
48007;DHT22;33771;48.180;11.400;2022-12-07T00:16:28;2.40;99.90
48007;DHT22;33771;48.180;11.400;2022-12-07T00:18:54;2.40;99.90
48007;DHT22;33771;48.180;11.400;2022-12-07T00:21:23;2.40;99.90
48007;DHT22;33771;48.180;11.400;2022-12-07T00:23:50;2.40;99.90
48007;DHT22;33771;48.180;11.400;2022-12-07T00:26:18;2.40;99.90
48007;DHT22;33771;48.180;11.400;2022-12-07T00:28:48;2.40;99.90
48007;DHT22;33771;48.180;11.400;2022-12-07T00:31:16;2.50;99.90
48007;DHT22;33771;48.180;11.400;2022-12-07T00:33:42;2.40;99.90
48007;DHT22;33771;48.180;11.400;2022-12-07T00:36:10;2.40;99.90
48007;DHT22;33771;48.180;11.400;2022-12-07T00:38:37;2.40;99.90
48007;DHT22;33771;48.180;11.400;2022-12-07T00:41:14;2.40;99.90
48007;DHT22;33771;48.180;11.400;2022-12-07T00:43:41;2.40;99.90
48007;DHT22;33771;48.180;11.400;2022-12-07T00:46:07;2.40;99.90
48007;DHT22;33771;48.180;11.400;2022-12-07T00:48:33;2.40;99.90
48007;DHT22;33771;48.180;11.400;2022-12-07T00:50:59;2.40;99.90
48007;DHT22;33771;48.180;11.400;2022-12-07T00:53:26;2.40;99.90
48007;DHT22;33771;48.180;11.400;2022-12-07T00:55:51;2.40;99.90
48007;DHT22;33771;48.180;11.400;2022-12-07T00:58:18;2.40;99.90
48007;DHT22;33771;48.180;11.400;2022-12-07T01:00:43;2.40;99.90
48007;DHT22;33771;48.180;11.400;2022-12-07T01:03:11;2.40;99.90
48007;DHT22;33771;48.180;11.400;2022-12-07T01:05:37;2.40;99.90
48007;DHT22;33771;48.180;11.400;2022-12-07T01:08:03;2.40;99.90
48007;DHT22;33771;48.180;11.400;2022-12-07T01:10:29;2.40;99.90
48007;DHT22;33771;48.180;11.400;2022-12-07T01:12:56;2.40;99.90
48007;DHT22;33771;48.180;11.400;2022-12-07T01:15:22;2.40;99.90
48007;DHT22;33771;48.180;11.400;2022-12-07T01:17:47;2.40;99.90
48007;DHT22;33771;48.180;11.400;2022-12-07T01:20:14;2.40;99.90
48007;DHT22;33771;48.180;11.400;2022-12-07T01:22:41;2.40;99.90
48007;DHT22;33771;48.180;11.400;2022-12-07T01:25:08;2.40;99.90
48007;DHT22;33771;48.180;11.400;2022-12-07T01:27:35;2.40;99.90
48007;DHT22;33771;48.180;11.400;2022-12-07T01:30:01;2.40;99.90
48007;DHT22;33771;48.180;11.400;2022-12-07T01:32:27;2.40;99.90
48007;DHT22;33771;48.180;11.400;2022-12-07T01:34:54;2.40;99.90
48007;DHT22;33771;48.180;11.400;2022-12-07T01:37:19;2.40;99.90
48007;DHT22;33771;48.180;11.400;2022-12-07T01:39:48;2.40;99.90
48007;DHT22;33771;48.180;11.400;2022-12-07T01:42:14;2.40;99.90
48007;DHT22;33771;48.180;11.400;2022-12-07T01:47:48;2.40;99.90
48007;DHT22;33771;48.180;11.400;2022-12-07T01:50:15;2.40;99.90
48007;DHT22;33771;48.180;11.400;2022-12-07T01:52:42;2.40;99.90
48007;DHT22;33771;48.180;11.400;2022-12-07T01:55:12;2.40;99.90
48007;DHT22;33771;48.180;11.400;2022-12-07T01:57:48;2.40;99.90
48007;DHT22;33771;48.180;11.400;2022-12-07T02:00:14;2.40;99.90
48007;DHT22;33771;48.180;11.400;2022-12-07T02:03:00;2.40;99.90
48007;DHT22;33771;48.180;11.400;2022-12-07T02:05:29;2.40;99.90
48007;DHT22;33771;48.180;11.400;2022-12-07T02:07:56;2.40;99.90
48007;DHT22;33771;48.180;11.400;2022-12-07T02:10:25;2.40;99.90
48007;DHT22;33771;48.180;11.400;2022-12-07T02:12:57;2.40;99.90
48007;DHT22;33771;48.180;11.400;2022-12-07T02:15:34;2.30;99.90
48007;DHT22;33771;48.180;11.400;2022-12-07T02:18:13;2.40;99.90
48007;DHT22;33771;48.180;11.400;2022-12-07T02:28:35;2.30;99.90
48007;DHT22;33771;48.180;11.400;2022-12-07T02:31:22;2.40;99.90
48007;DHT22;33771;48.180;11.400;2022-12-07T02:34:06;2.30;99.90
48007;DHT22;33771;48.180;11.400;2022-12-07T02:36:40;2.40;99.90
48007;DHT22;33771;48.180;11.400;2022-12-07T02:39:42;2.30;99.90
48007;DHT22;33771;48.180;11.400;2022-12-07T02:42:15;2.30;99.90
48007;DHT22;33771;48.180;11.400;2022-12-07T02:44:44;2.30;99.90
48007;DHT22;33771;48.180;11.400;2022-12-07T02:47:14;2.30;99.90
48007;DHT22;33771;48.180;11.400;2022-12-07T02:49:41;2.30;99.90
48007;DHT22;33771;48.180;11.400;2022-12-07T02:52:07;2.30;99.90
48007;DHT22;33771;48.180;11.400;2022-12-07T02:54:32;2.30;99.90
48007;DHT22;33771;48.180;11.400;2022-12-07T03:05:31;2.30;99.90
48007;DHT22;33771;48.180;11.400;2022-12-07T03:11:06;2.20;99.90
48007;DHT22;33771;48.180;11.400;2022-12-07T03:14:02;2.20;99.90
48007;DHT22;33771;48.180;11.400;2022-12-07T03:16:33;2.20;99.90
48007;DHT22;33771;48.180;11.400;2022-12-07T03:19:09;2.20;99.90
48007;DHT22;33771;48.180;11.400;2022-12-07T03:21:43;2.20;99.90
48007;DHT22;33771;48.180;11.400;2022-12-07T03:24:17;2.20;99.90
48007;DHT22;33771;48.180;11.400;2022-12-07T03:26:50;2.30;99.90
48007;DHT22;33771;48.180;11.400;2022-12-07T03:29:24;2.20;99.90
48007;DHT22;33771;48.180;11.400;2022-12-07T03:32:27;2.20;99.90
48007;DHT22;33771;48.180;11.400;2022-12-07T03:35:09;2.20;99.90
48007;DHT22;33771;48.180;11.400;2022-12-07T03:38:14;2.20;99.90
48007;DHT22;33771;48.180;11.400;2022-12-07T03:40:47;2.20;99.90
48007;DHT22;33771;48.180;11.400;2022-12-07T03:43:16;2.20;99.90
48007;DHT22;33771;48.180;11.400;2022-12-07T03:45:45;2.20;99.90
48007;DHT22;33771;48.180;11.400;2022-12-07T03:48:32;2.20;99.90
48007;DHT22;33771;48.180;11.400;2022-12-07T03:51:26;2.20;99.90
48007;DHT22;33771;48.180;11.400;2022-12-07T03:54:02;2.20;99.90
48007;DHT22;33771;48.180;11.400;2022-12-07T03:56:31;2.20;99.90
48007;DHT22;33771;48.180;11.400;2022-12-07T03:58:57;2.20;99.90
48007;DHT22;33771;48.180;11.400;2022-12-07T04:01:23;2.20;99.90
48007;DHT22;33771;48.180;11.400;2022-12-07T04:03:49;2.20;99.90
48007;DHT22;33771;48.180;11.400;2022-12-07T04:06:15;2.20;99.90
48007;DHT22;33771;48.180;11.400;2022-12-07T04:08:41;2.20;99.90
48007;DHT22;33771;48.180;11.400;2022-12-07T04:11:06;2.20;99.90
48007;DHT22;33771;48.180;11.400;2022-12-07T04:13:32;2.20;99.90
48007;DHT22;33771;48.180;11.400;2022-12-07T04:16:17;2.20;99.90
48007;DHT22;33771;48.180;11.400;2022-12-07T04:18:43;2.20;99.90
48007;DHT22;33771;48.180;11.400;2022-12-07T04:21:08;2.20;99.90
48007;DHT22;33771;48.180;11.400;2022-12-07T04:23:34;2.10;99.90
48007;DHT22;33771;48.180;11.400;2022-12-07T04:25:59;2.10;99.90
48007;DHT22;33771;48.180;11.400;2022-12-07T04:28:25;2.20;99.90
48007;DHT22;33771;48.180;11.400;2022-12-07T04:30:51;2.20;99.90
48007;DHT22;33771;48.180;11.400;2022-12-07T04:33:16;2.10;99.90
48007;DHT22;33771;48.180;11.400;2022-12-07T04:35:43;2.10;99.90
48007;DHT22;33771;48.180;11.400;2022-12-07T04:38:08;2.10;99.90
48007;DHT22;33771;48.180;11.400;2022-12-07T04:40:37;2.20;99.90
48007;DHT22;33771;48.180;11.400;2022-12-07T04:43:07;2.10;99.90
48007;DHT22;33771;48.180;11.400;2022-12-07T04:45:35;2.10;99.90
48007;DHT22;33771;48.180;11.400;2022-12-07T04:54:41;2.00;99.90
48007;DHT22;33771;48.180;11.400;2022-12-07T04:57:57;2.00;99.90
48007;DHT22;33771;48.180;11.400;2022-12-07T05:04:20;2.00;99.90
48007;DHT22;33771;48.180;11.400;2022-12-07T05:06:45;1.90;99.90
48007;DHT22;33771;48.180;11.400;2022-12-07T05:20:13;1.90;99.90
48007;DHT22;33771;48.180;11.400;2022-12-07T05:23:12;1.90;99.90
48007;DHT22;33771;48.180;11.400;2022-12-07T05:32:39;1.90;99.90
48007;DHT22;33771;48.180;11.400;2022-12-07T05:38:38;1.90;99.90
48007;DHT22;33771;48.180;11.400;2022-12-07T05:44:33;1.90;99.90
48007;DHT22;33771;48.180;11.400;2022-12-07T05:47:08;1.90;99.90
48007;DHT22;33771;48.180;11.400;2022-12-07T05:49:50;1.90;99.90
48007;DHT22;33771;48.180;11.400;2022-12-07T05:52:19;1.90;99.90
48007;DHT22;33771;48.180;11.400;2022-12-07T05:55:02;1.90;99.90
48007;DHT22;33771;48.180;11.400;2022-12-07T05:57:32;1.90;99.90
48007;DHT22;33771;48.180;11.400;2022-12-07T06:00:00;1.90;99.90
48007;DHT22;33771;48.180;11.400;2022-12-07T06:02:29;1.90;99.90
48007;DHT22;33771;48.180;11.400;2022-12-07T06:05:02;1.90;99.90
48007;DHT22;33771;48.180;11.400;2022-12-07T06:07:40;1.90;99.90
48007;DHT22;33771;48.180;11.400;2022-12-07T06:10:18;1.90;99.90
48007;DHT22;33771;48.180;11.400;2022-12-07T06:19:42;1.80;99.90
48007;DHT22;33771;48.180;11.400;2022-12-07T06:26:07;1.90;99.90
48007;DHT22;33771;48.180;11.400;2022-12-07T06:32:04;1.90;99.90
48007;DHT22;33771;48.180;11.400;2022-12-07T08:17:49;2.10;99.90
48007;DHT22;33771;48.180;11.400;2022-12-07T08:24:12;2.10;99.90
48007;DHT22;33771;48.180;11.400;2022-12-07T08:26:41;2.10;99.90
48007;DHT22;33771;48.180;11.400;2022-12-07T08:29:32;2.10;99.90
48007;DHT22;33771;48.180;11.400;2022-12-07T08:32:02;2.10;99.90
48007;DHT22;33771;48.180;11.400;2022-12-07T08:34:43;2.20;99.90
48007;DHT22;33771;48.180;11.400;2022-12-07T08:37:23;2.20;99.90
48007;DHT22;33771;48.180;11.400;2022-12-07T08:40:10;2.30;99.90
48007;DHT22;33771;48.180;11.400;2022-12-07T08:46:30;2.30;99.90
48007;DHT22;33771;48.180;11.400;2022-12-07T08:58:51;2.70;99.90
48007;DHT22;33771;48.180;11.400;2022-12-07T09:01:29;2.70;99.90
48007;DHT22;33771;48.180;11.400;2022-12-07T09:03:55;2.70;99.90
48007;DHT22;33771;48.180;11.400;2022-12-07T09:06:23;2.80;99.90
48007;DHT22;33771;48.180;11.400;2022-12-07T09:08:52;2.80;99.90
48007;DHT22;33771;48.180;11.400;2022-12-07T09:11:18;2.80;99.90
48007;DHT22;33771;48.180;11.400;2022-12-07T09:13:44;2.80;99.90
48007;DHT22;33771;48.180;11.400;2022-12-07T09:16:10;2.80;99.90
48007;DHT22;33771;48.180;11.400;2022-12-07T09:18:35;2.90;99.90
48007;DHT22;33771;48.180;11.400;2022-12-07T09:21:01;3.00;99.90
48007;DHT22;33771;48.180;11.400;2022-12-07T09:23:26;3.00;99.90
48007;DHT22;33771;48.180;11.400;2022-12-07T09:25:52;3.00;99.90
48007;DHT22;33771;48.180;11.400;2022-12-07T09:28:17;3.00;99.90
48007;DHT22;33771;48.180;11.400;2022-12-07T09:30:50;3.10;99.90
48007;DHT22;33771;48.180;11.400;2022-12-07T09:33:16;3.10;99.90
48007;DHT22;33771;48.180;11.400;2022-12-07T09:35:49;3.20;99.90
48007;DHT22;33771;48.180;11.400;2022-12-07T09:38:15;3.20;99.90
48007;DHT22;33771;48.180;11.400;2022-12-07T09:40:41;3.30;99.90
48007;DHT22;33771;48.180;11.400;2022-12-07T09:43:21;3.30;99.90
48007;DHT22;33771;48.180;11.400;2022-12-07T09:45:48;3.30;99.90
48007;DHT22;33771;48.180;11.400;2022-12-07T09:48:18;3.30;99.90
48007;DHT22;33771;48.180;11.400;2022-12-07T09:50:47;3.30;99.90
48007;DHT22;33771;48.180;11.400;2022-12-07T09:53:33;3.40;99.90
48007;DHT22;33771;48.180;11.400;2022-12-07T09:56:00;3.40;99.90
48007;DHT22;33771;48.180;11.400;2022-12-07T09:58:28;3.40;99.90
48007;DHT22;33771;48.180;11.400;2022-12-07T10:00:57;3.40;99.90
48007;DHT22;33771;48.180;11.400;2022-12-07T10:03:26;3.40;99.90
48007;DHT22;33771;48.180;11.400;2022-12-07T10:05:52;3.50;99.90
48007;DHT22;33771;48.180;11.400;2022-12-07T10:08:19;3.50;99.90
48007;DHT22;33771;48.180;11.400;2022-12-07T10:10:46;3.60;99.90
48007;DHT22;33771;48.180;11.400;2022-12-07T10:13:15;3.60;99.90
48007;DHT22;33771;48.180;11.400;2022-12-07T10:18:27;3.60;99.90
48007;DHT22;33771;48.180;11.400;2022-12-07T10:21:02;3.60;99.90
48007;DHT22;33771;48.180;11.400;2022-12-07T10:23:28;3.60;99.90
48007;DHT22;33771;48.180;11.400;2022-12-07T10:25:54;3.80;99.90
48007;DHT22;33771;48.180;11.400;2022-12-07T10:28:23;3.80;99.90
48007;DHT22;33771;48.180;11.400;2022-12-07T10:33:38;3.90;99.90
48007;DHT22;33771;48.180;11.400;2022-12-07T10:36:19;3.90;99.90
48007;DHT22;33771;48.180;11.400;2022-12-07T10:38:53;3.90;99.90
48007;DHT22;33771;48.180;11.400;2022-12-07T10:41:24;3.90;99.90
48007;DHT22;33771;48.180;11.400;2022-12-07T10:43:56;3.90;99.90
48007;DHT22;33771;48.180;11.400;2022-12-07T10:51:31;4.00;99.90
48007;DHT22;33771;48.180;11.400;2022-12-07T11:26:46;4.40;99.90
48007;DHT22;33771;48.180;11.400;2022-12-07T11:37:21;4.60;99.90
48007;DHT22;33771;48.180;11.400;2022-12-07T11:39:52;4.70;99.90
48007;DHT22;33771;48.180;11.400;2022-12-07T11:42:23;4.70;99.90
48007;DHT22;33771;48.180;11.400;2022-12-07T11:45:15;4.70;99.90
48007;DHT22;33771;48.180;11.400;2022-12-07T11:47:58;4.70;99.90
48007;DHT22;33771;48.180;11.400;2022-12-07T11:58:51;4.60;99.90
48007;DHT22;33771;48.180;11.400;2022-12-07T12:06:28;4.50;99.90
48007;DHT22;33771;48.180;11.400;2022-12-07T12:20:41;4.20;99.90
48007;DHT22;33771;48.180;11.400;2022-12-07T12:23:21;4.20;99.90
48007;DHT22;33771;48.180;11.400;2022-12-07T12:26:00;4.30;99.90
48007;DHT22;33771;48.180;11.400;2022-12-07T12:31:13;4.60;99.90
48007;DHT22;33771;48.180;11.400;2022-12-07T12:33:56;4.60;99.90
48007;DHT22;33771;48.180;11.400;2022-12-07T12:47:00;4.90;99.90
48007;DHT22;33771;48.180;11.400;2022-12-07T12:55:01;5.00;99.90
48007;DHT22;33771;48.180;11.400;2022-12-07T12:57:30;5.00;99.90
48007;DHT22;33771;48.180;11.400;2022-12-07T13:00:01;5.00;99.90
48007;DHT22;33771;48.180;11.400;2022-12-07T13:02:32;5.00;99.90
48007;DHT22;33771;48.180;11.400;2022-12-07T13:05:14;5.00;99.90
48007;DHT22;33771;48.180;11.400;2022-12-07T13:23:36;4.50;99.90
48007;DHT22;33771;48.180;11.400;2022-12-07T13:26:19;4.40;99.90
48007;DHT22;33771;48.180;11.400;2022-12-07T13:28:51;4.30;99.90
48007;DHT22;33771;48.180;11.400;2022-12-07T13:31:40;4.30;99.90
48007;DHT22;33771;48.180;11.400;2022-12-07T13:34:32;4.30;99.90
48007;DHT22;33771;48.180;11.400;2022-12-07T13:37:01;4.30;99.90
48007;DHT22;33771;48.180;11.400;2022-12-07T13:39:28;4.20;99.90
48007;DHT22;33771;48.180;11.400;2022-12-07T13:41:56;4.20;99.90
48007;DHT22;33771;48.180;11.400;2022-12-07T13:44:27;4.10;99.90
48007;DHT22;33771;48.180;11.400;2022-12-07T13:47:13;4.10;99.90
48007;DHT22;33771;48.180;11.400;2022-12-07T13:49:51;4.10;99.90
48007;DHT22;33771;48.180;11.400;2022-12-07T13:52:22;4.20;99.90
48007;DHT22;33771;48.180;11.400;2022-12-07T13:57:21;4.30;99.90
48007;DHT22;33771;48.180;11.400;2022-12-07T13:59:48;4.40;99.90
48007;DHT22;33771;48.180;11.400;2022-12-07T14:02:20;4.40;99.90
48007;DHT22;33771;48.180;11.400;2022-12-07T14:04:49;4.50;99.90
48007;DHT22;33771;48.180;11.400;2022-12-07T14:07:24;4.50;99.90
48007;DHT22;33771;48.180;11.400;2022-12-07T14:12:21;4.50;99.90
48007;DHT22;33771;48.180;11.400;2022-12-07T14:14:48;4.40;99.90
48007;DHT22;33771;48.180;11.400;2022-12-07T14:17:22;4.40;99.90
48007;DHT22;33771;48.180;11.400;2022-12-07T14:19:54;4.40;99.90
48007;DHT22;33771;48.180;11.400;2022-12-07T14:25:22;4.30;99.90
48007;DHT22;33771;48.180;11.400;2022-12-07T14:27:51;4.30;99.90
48007;DHT22;33771;48.180;11.400;2022-12-07T14:30:18;4.20;99.90
48007;DHT22;33771;48.180;11.400;2022-12-07T14:32:44;4.10;99.90
48007;DHT22;33771;48.180;11.400;2022-12-07T14:35:15;4.10;99.90
48007;DHT22;33771;48.180;11.400;2022-12-07T14:37:43;4.00;99.90
48007;DHT22;33771;48.180;11.400;2022-12-07T14:40:14;4.00;99.90
48007;DHT22;33771;48.180;11.400;2022-12-07T14:42:41;4.00;99.90
48007;DHT22;33771;48.180;11.400;2022-12-07T14:45:17;4.00;99.90
48007;DHT22;33771;48.180;11.400;2022-12-07T14:47:43;4.00;99.90
48007;DHT22;33771;48.180;11.400;2022-12-07T14:50:12;4.00;99.90
48007;DHT22;33771;48.180;11.400;2022-12-07T14:52:38;4.00;99.90
48007;DHT22;33771;48.180;11.400;2022-12-07T14:55:04;3.90;99.90
48007;DHT22;33771;48.180;11.400;2022-12-07T14:57:30;3.90;99.90
48007;DHT22;33771;48.180;11.400;2022-12-07T14:59:56;3.90;99.90
48007;DHT22;33771;48.180;11.400;2022-12-07T15:02:21;3.80;99.90
48007;DHT22;33771;48.180;11.400;2022-12-07T15:04:47;3.70;99.90
48007;DHT22;33771;48.180;11.400;2022-12-07T15:07:20;3.70;99.90
48007;DHT22;33771;48.180;11.400;2022-12-07T15:09:47;3.60;99.90
48007;DHT22;33771;48.180;11.400;2022-12-07T15:12:12;3.50;99.90
48007;DHT22;33771;48.180;11.400;2022-12-07T15:14:38;3.40;99.90
48007;DHT22;33771;48.180;11.400;2022-12-07T15:17:03;3.40;99.90
48007;DHT22;33771;48.180;11.400;2022-12-07T15:19:29;3.30;99.90
48007;DHT22;33771;48.180;11.400;2022-12-07T15:21:55;3.20;99.90
48007;DHT22;33771;48.180;11.400;2022-12-07T15:24:21;3.20;99.90
48007;DHT22;33771;48.180;11.400;2022-12-07T15:26:47;3.20;99.90
48007;DHT22;33771;48.180;11.400;2022-12-07T15:29:13;3.10;99.90
48007;DHT22;33771;48.180;11.400;2022-12-07T15:31:40;3.10;99.90
48007;DHT22;33771;48.180;11.400;2022-12-07T15:34:06;3.00;99.90
48007;DHT22;33771;48.180;11.400;2022-12-07T15:36:32;3.00;99.90
48007;DHT22;33771;48.180;11.400;2022-12-07T15:38:58;3.00;99.90
48007;DHT22;33771;48.180;11.400;2022-12-07T15:41:24;2.90;99.90
48007;DHT22;33771;48.180;11.400;2022-12-07T15:43:50;2.90;99.90
48007;DHT22;33771;48.180;11.400;2022-12-07T15:46:39;2.80;99.90
48007;DHT22;33771;48.180;11.400;2022-12-07T15:49:13;2.80;99.90
48007;DHT22;33771;48.180;11.400;2022-12-07T15:51:40;2.80;99.90
48007;DHT22;33771;48.180;11.400;2022-12-07T15:54:07;2.70;99.90
48007;DHT22;33771;48.180;11.400;2022-12-07T15:56:32;2.70;99.90
48007;DHT22;33771;48.180;11.400;2022-12-07T15:58:58;2.60;99.90
48007;DHT22;33771;48.180;11.400;2022-12-07T16:01:24;2.60;99.90
48007;DHT22;33771;48.180;11.400;2022-12-07T16:03:49;2.50;99.90
48007;DHT22;33771;48.180;11.400;2022-12-07T16:06:16;2.50;99.90
48007;DHT22;33771;48.180;11.400;2022-12-07T16:08:44;2.50;99.90
48007;DHT22;33771;48.180;11.400;2022-12-07T16:11:10;2.40;99.90
48007;DHT22;33771;48.180;11.400;2022-12-07T16:13:35;2.40;99.90
48007;DHT22;33771;48.180;11.400;2022-12-07T16:16:20;2.30;99.90
48007;DHT22;33771;48.180;11.400;2022-12-07T16:18:47;2.30;99.90
48007;DHT22;33771;48.180;11.400;2022-12-07T16:21:14;2.20;99.90
48007;DHT22;33771;48.180;11.400;2022-12-07T16:23:40;2.20;99.90
48007;DHT22;33771;48.180;11.400;2022-12-07T16:26:11;2.20;99.90
48007;DHT22;33771;48.180;11.400;2022-12-07T16:28:36;2.10;99.90
48007;DHT22;33771;48.180;11.400;2022-12-07T16:31:13;2.10;99.90
48007;DHT22;33771;48.180;11.400;2022-12-07T16:33:40;2.10;99.90
48007;DHT22;33771;48.180;11.400;2022-12-07T16:36:07;2.10;99.90
48007;DHT22;33771;48.180;11.400;2022-12-07T16:38:39;2.00;99.90
48007;DHT22;33771;48.180;11.400;2022-12-07T16:41:06;2.00;99.90
48007;DHT22;33771;48.180;11.400;2022-12-07T16:43:32;1.90;99.90
48007;DHT22;33771;48.180;11.400;2022-12-07T16:45:58;1.90;99.90
48007;DHT22;33771;48.180;11.400;2022-12-07T16:48:24;1.90;99.90
48007;DHT22;33771;48.180;11.400;2022-12-07T16:50:49;1.80;99.90
48007;DHT22;33771;48.180;11.400;2022-12-07T16:53:15;1.80;99.90
48007;DHT22;33771;48.180;11.400;2022-12-07T16:55:44;1.70;99.90
48007;DHT22;33771;48.180;11.400;2022-12-07T16:58:11;1.70;99.90
48007;DHT22;33771;48.180;11.400;2022-12-07T17:00:37;1.60;99.90
48007;DHT22;33771;48.180;11.400;2022-12-07T17:03:03;1.60;99.90
48007;DHT22;33771;48.180;11.400;2022-12-07T17:05:29;1.50;99.90
48007;DHT22;33771;48.180;11.400;2022-12-07T17:07:55;1.50;99.90
48007;DHT22;33771;48.180;11.400;2022-12-07T17:10:21;1.40;99.90
48007;DHT22;33771;48.180;11.400;2022-12-07T17:12:47;1.40;99.90
48007;DHT22;33771;48.180;11.400;2022-12-07T17:15:13;1.30;99.90
48007;DHT22;33771;48.180;11.400;2022-12-07T17:17:54;1.30;99.90
48007;DHT22;33771;48.180;11.400;2022-12-07T17:20:22;1.20;99.90
48007;DHT22;33771;48.180;11.400;2022-12-07T17:22:48;1.20;99.90
48007;DHT22;33771;48.180;11.400;2022-12-07T17:25:14;1.10;99.90
48007;DHT22;33771;48.180;11.400;2022-12-07T17:27:43;1.10;99.90
48007;DHT22;33771;48.180;11.400;2022-12-07T17:30:09;1.10;99.90
48007;DHT22;33771;48.180;11.400;2022-12-07T17:32:35;1.10;99.90
48007;DHT22;33771;48.180;11.400;2022-12-07T17:35:00;1.10;99.90
48007;DHT22;33771;48.180;11.400;2022-12-07T17:37:26;1.00;99.90
48007;DHT22;33771;48.180;11.400;2022-12-07T17:39:52;1.00;99.90
48007;DHT22;33771;48.180;11.400;2022-12-07T17:42:21;1.00;99.90
48007;DHT22;33771;48.180;11.400;2022-12-07T17:45:07;1.00;99.90
48007;DHT22;33771;48.180;11.400;2022-12-07T17:47:33;1.00;99.90
48007;DHT22;33771;48.180;11.400;2022-12-07T17:49:59;1.00;99.90
48007;DHT22;33771;48.180;11.400;2022-12-07T17:52:24;1.00;99.90
48007;DHT22;33771;48.180;11.400;2022-12-07T17:55:08;1.00;99.90
48007;DHT22;33771;48.180;11.400;2022-12-07T17:57:34;1.00;99.90
48007;DHT22;33771;48.180;11.400;2022-12-07T18:00:00;0.90;99.90
48007;DHT22;33771;48.180;11.400;2022-12-07T18:02:25;0.90;99.90
48007;DHT22;33771;48.180;11.400;2022-12-07T18:04:51;0.90;99.90
48007;DHT22;33771;48.180;11.400;2022-12-07T18:07:17;0.90;99.90
48007;DHT22;33771;48.180;11.400;2022-12-07T18:09:43;0.90;99.90
48007;DHT22;33771;48.180;11.400;2022-12-07T18:12:09;0.90;99.90
48007;DHT22;33771;48.180;11.400;2022-12-07T18:14:34;0.80;99.90
48007;DHT22;33771;48.180;11.400;2022-12-07T18:17:00;0.80;99.90
48007;DHT22;33771;48.180;11.400;2022-12-07T18:19:26;0.80;99.90
48007;DHT22;33771;48.180;11.400;2022-12-07T18:21:52;0.80;99.90
48007;DHT22;33771;48.180;11.400;2022-12-07T18:24:17;0.70;99.90
48007;DHT22;33771;48.180;11.400;2022-12-07T18:26:45;0.70;99.90
48007;DHT22;33771;48.180;11.400;2022-12-07T18:29:16;0.70;99.90
48007;DHT22;33771;48.180;11.400;2022-12-07T18:31:44;0.70;99.90
48007;DHT22;33771;48.180;11.400;2022-12-07T18:34:13;0.60;99.90
48007;DHT22;33771;48.180;11.400;2022-12-07T18:36:41;0.60;99.90
48007;DHT22;33771;48.180;11.400;2022-12-07T18:39:07;0.60;99.90
48007;DHT22;33771;48.180;11.400;2022-12-07T18:41:33;0.70;99.90
48007;DHT22;33771;48.180;11.400;2022-12-07T18:43:59;0.70;99.90
48007;DHT22;33771;48.180;11.400;2022-12-07T18:46:25;0.70;99.90
48007;DHT22;33771;48.180;11.400;2022-12-07T18:48:51;0.70;99.90
48007;DHT22;33771;48.180;11.400;2022-12-07T18:51:22;0.70;99.90
48007;DHT22;33771;48.180;11.400;2022-12-07T18:53:48;0.80;99.90
48007;DHT22;33771;48.180;11.400;2022-12-07T18:56:15;0.80;99.90
48007;DHT22;33771;48.180;11.400;2022-12-07T18:58:42;0.80;99.90
48007;DHT22;33771;48.180;11.400;2022-12-07T19:01:29;0.90;99.90
48007;DHT22;33771;48.180;11.400;2022-12-07T19:03:56;0.90;99.90
48007;DHT22;33771;48.180;11.400;2022-12-07T19:06:22;0.90;99.90
48007;DHT22;33771;48.180;11.400;2022-12-07T19:08:47;1.00;99.90
48007;DHT22;33771;48.180;11.400;2022-12-07T19:11:17;1.00;99.90
48007;DHT22;33771;48.180;11.400;2022-12-07T19:14:01;1.00;99.90
48007;DHT22;33771;48.180;11.400;2022-12-07T19:16:27;0.90;99.90
48007;DHT22;33771;48.180;11.400;2022-12-07T19:18:52;0.90;99.90
48007;DHT22;33771;48.180;11.400;2022-12-07T19:21:18;0.90;99.90
48007;DHT22;33771;48.180;11.400;2022-12-07T19:23:43;0.80;99.90
48007;DHT22;33771;48.180;11.400;2022-12-07T19:26:09;0.80;99.90
48007;DHT22;33771;48.180;11.400;2022-12-07T19:28:35;0.80;99.90
48007;DHT22;33771;48.180;11.400;2022-12-07T19:31:05;0.80;99.90
48007;DHT22;33771;48.180;11.400;2022-12-07T19:33:30;0.80;99.90
48007;DHT22;33771;48.180;11.400;2022-12-07T19:35:56;0.70;99.90
48007;DHT22;33771;48.180;11.400;2022-12-07T19:38:21;0.70;99.90
48007;DHT22;33771;48.180;11.400;2022-12-07T19:40:47;0.70;99.90
48007;DHT22;33771;48.180;11.400;2022-12-07T19:43:13;0.70;99.90
48007;DHT22;33771;48.180;11.400;2022-12-07T19:45:38;0.70;99.90
48007;DHT22;33771;48.180;11.400;2022-12-07T19:48:04;0.70;99.90
48007;DHT22;33771;48.180;11.400;2022-12-07T19:50:29;0.80;99.90
48007;DHT22;33771;48.180;11.400;2022-12-07T19:52:55;0.70;99.90
48007;DHT22;33771;48.180;11.400;2022-12-07T19:55:20;0.80;99.90
48007;DHT22;33771;48.180;11.400;2022-12-07T19:57:46;0.80;99.90
48007;DHT22;33771;48.180;11.400;2022-12-07T20:00:12;0.80;99.90
48007;DHT22;33771;48.180;11.400;2022-12-07T20:02:38;0.80;99.90
48007;DHT22;33771;48.180;11.400;2022-12-07T20:05:03;0.80;99.90
48007;DHT22;33771;48.180;11.400;2022-12-07T20:07:29;0.80;99.90
48007;DHT22;33771;48.180;11.400;2022-12-07T20:09:56;0.80;99.90
48007;DHT22;33771;48.180;11.400;2022-12-07T20:12:21;0.80;99.90
48007;DHT22;33771;48.180;11.400;2022-12-07T20:15:06;0.80;99.90
48007;DHT22;33771;48.180;11.400;2022-12-07T20:17:32;0.80;99.90
48007;DHT22;33771;48.180;11.400;2022-12-07T20:19:58;0.80;99.90
48007;DHT22;33771;48.180;11.400;2022-12-07T20:22:23;0.80;99.90
48007;DHT22;33771;48.180;11.400;2022-12-07T20:24:49;0.80;99.90
48007;DHT22;33771;48.180;11.400;2022-12-07T20:27:14;0.70;99.90
48007;DHT22;33771;48.180;11.400;2022-12-07T20:29:41;0.70;99.90
48007;DHT22;33771;48.180;11.400;2022-12-07T20:32:10;0.70;99.90
48007;DHT22;33771;48.180;11.400;2022-12-07T20:34:36;0.60;99.90
48007;DHT22;33771;48.180;11.400;2022-12-07T20:37:02;0.60;99.90
48007;DHT22;33771;48.180;11.400;2022-12-07T20:39:27;0.60;99.90
48007;DHT22;33771;48.180;11.400;2022-12-07T20:41:53;0.70;99.90
48007;DHT22;33771;48.180;11.400;2022-12-07T20:44:38;0.70;99.90
48007;DHT22;33771;48.180;11.400;2022-12-07T20:47:04;0.70;99.90
48007;DHT22;33771;48.180;11.400;2022-12-07T20:49:30;0.70;99.90
48007;DHT22;33771;48.180;11.400;2022-12-07T20:51:56;0.70;99.90
48007;DHT22;33771;48.180;11.400;2022-12-07T20:54:22;0.70;99.90
48007;DHT22;33771;48.180;11.400;2022-12-07T20:56:47;0.70;99.90
48007;DHT22;33771;48.180;11.400;2022-12-07T20:59:15;0.70;99.90